Time;durP1;ratioP1;P1;durP2;ratioP2;P2;SDS_P1;SDS_P2;PMS_P1;PMS_P2;Temp;Humidity;BMP_temperature;BMP_pressure;BME280_temperature;BME280_humidity;BME280_pressure;Samples;Min_cycle;Max_cycle;Signal;HPM_P1;HPM_P2
2022/08/05 00:01:57;;;;;;;4.22;1.52;;;;;;;;;;10475701;28;20033;-57
2022/08/05 00:06:58;;;;;;;1.88;1.65;;;;;;;;;;10472724;28;20020;-56
2022/08/05 00:11:59;;;;;;;1.88;1.50;;;;;;;;;;10490131;28;20025;-57
2022/08/05 00:16:59;;;;;;;2.08;1.60;;;;;;;;;;10483497;28;20431;-58
2022/08/05 00:22:01;;;;;;;2.63;1.77;;;;;;;;;;10485326;28;20059;-57
2022/08/05 00:27:02;;;;;;;5.93;1.85;;;;;;;;;;10479867;28;20033;-58
2022/08/05 00:32:04;;;;;;;1.50;1.35;;;;;;;;;;10474615;28;20076;-56
2022/08/05 00:37:05;;;;;;;3.63;1.98;;;;;;;;;;10489830;28;20040;-58
2022/08/05 00:42:06;;;;;;;2.38;1.40;;;;;;;;;;10478215;28;20495;-58
2022/08/05 00:47:06;;;;;;;2.03;1.58;;;;;;;;;;10476773;28;20140;-57
2022/08/05 00:52:07;;;;;;;2.63;1.70;;;;;;;;;;10487914;28;20069;-57
2022/08/05 00:57:08;;;;;;;1.88;1.50;;;;;;;;;;10489695;28;20074;-58
2022/08/05 01:02:08;;;;;;;1.70;1.60;;;;;;;;;;10483070;28;20082;-57
2022/08/05 01:07:09;;;;;;;2.70;1.50;;;;;;;;;;10475583;28;20024;-56
2022/08/05 01:12:13;;;;;;;2.47;1.38;;;;;;;;;;10464307;28;20036;-56
2022/08/05 01:17:33;;;;;;;1.73;1.50;;;;;;;;;;10470113;28;20127;-57
2022/08/05 01:23:00;;;;;;;1.92;1.33;;;;;;;;;;10466436;28;20028;-56
2022/08/05 01:28:36;;;;;;;2.00;1.48;;;;;;;;;;10475440;28;20074;-56
2022/08/05 01:33:53;;;;;;;2.42;1.23;;;;;;;;;;10469874;28;20055;-56
2022/08/05 01:38:55;;;;;;;1.95;1.30;;;;;;;;;;10477238;28;20545;-56
2022/08/05 01:43:57;;;;;;;3.78;1.40;;;;;;;;;;10472682;28;20032;-56
2022/08/05 01:49:00;;;;;;;2.35;1.40;;;;;;;;;;10486226;28;20025;-55
2022/08/05 01:54:04;;;;;;;2.13;1.48;;;;;;;;;;10478104;28;20065;-57
2022/08/05 01:59:15;;;;;;;1.65;1.55;;;;;;;;;;10483279;28;20028;-57
2022/08/05 02:04:17;;;;;;;1.45;1.35;;;;;;;;;;10470968;28;20082;-55
2022/08/05 02:09:18;;;;;;;3.95;1.50;;;;;;;;;;10488016;28;20024;-58
2022/08/05 02:14:36;;;;;;;1.63;1.52;;;;;;;;;;10475124;28;20040;-57
2022/08/05 02:19:43;;;;;;;1.55;1.25;;;;;;;;;;10461659;28;20056;-58
2022/08/05 02:24:50;;;;;;;1.27;1.13;;;;;;;;;;10479096;28;20036;-57
2022/08/05 02:29:52;;;;;;;2.22;1.30;;;;;;;;;;10461374;28;20041;-56
2022/08/05 02:34:52;;;;;;;1.58;1.45;;;;;;;;;;10467941;28;20165;-56
2022/08/05 02:39:54;;;;;;;3.08;1.35;;;;;;;;;;10457582;28;20067;-55
2022/08/05 02:44:56;;;;;;;2.55;1.50;;;;;;;;;;10474695;28;20021;-56
2022/08/05 02:49:58;;;;;;;1.63;1.40;;;;;;;;;;10488202;28;20024;-57
2022/08/05 02:55:00;;;;;;;1.20;1.10;;;;;;;;;;10475091;28;20040;-57
2022/08/05 03:00:01;;;;;;;3.22;1.45;;;;;;;;;;10465313;28;20029;-56
2022/08/05 03:05:06;;;;;;;1.40;1.30;;;;;;;;;;10497874;28;20025;-54
2022/08/05 03:10:09;;;;;;;3.55;1.38;;;;;;;;;;10504402;28;20117;-56
2022/08/05 03:15:11;;;;;;;2.10;1.40;;;;;;;;;;10504106;28;20468;-57
2022/08/05 03:20:13;;;;;;;1.40;1.30;;;;;;;;;;10503560;28;20487;-57
2022/08/05 03:25:14;;;;;;;1.65;1.20;;;;;;;;;;10503213;28;20028;-56
2022/08/05 03:30:16;;;;;;;1.48;1.35;;;;;;;;;;10502509;28;20375;-57
2022/08/05 03:35:20;;;;;;;2.38;1.50;;;;;;;;;;10502689;28;20062;-57
2022/08/05 03:40:22;;;;;;;1.10;1.10;;;;;;;;;;10503377;28;20052;-57
2022/08/05 03:45:24;;;;;;;1.80;1.30;;;;;;;;;;10502464;28;20032;-57
2022/08/05 03:50:44;;;;;;;1.02;1.02;;;;;;;;;;10502895;28;20103;-57
2022/08/05 03:56:32;;;;;;;2.17;1.20;;;;;;;;;;10501858;28;20553;-57
2022/08/05 04:01:41;;;;;;;2.38;1.27;;;;;;;;;;10501955;28;20119;-57
2022/08/05 04:06:45;;;;;;;2.28;1.30;;;;;;;;;;10501772;28;20025;-57
2022/08/05 04:11:46;;;;;;;1.90;1.40;;;;;;;;;;10501982;28;20493;-57
2022/08/05 04:16:49;;;;;;;1.50;1.40;;;;;;;;;;10500026;28;20131;-57
2022/08/05 04:21:51;;;;;;;1.33;1.10;;;;;;;;;;10501591;28;20025;-57
2022/08/05 04:26:52;;;;;;;1.20;1.10;;;;;;;;;;10502403;28;20020;-57
2022/08/05 04:31:54;;;;;;;1.25;1.15;;;;;;;;;;10501086;28;20422;-55
2022/08/05 04:36:55;;;;;;;2.83;1.30;;;;;;;;;;10500300;28;20078;-51
2022/08/05 04:41:57;;;;;;;5.30;1.35;;;;;;;;;;10500193;28;20378;-50
2022/08/05 04:46:59;;;;;;;3.03;1.20;;;;;;;;;;10499991;28;20024;-54
2022/08/05 04:52:00;;;;;;;1.52;1.38;;;;;;;;;;10499515;28;20044;-57
2022/08/05 04:57:02;;;;;;;5.72;1.50;;;;;;;;;;10515208;28;20029;-51
2022/08/05 05:02:03;;;;;;;12.15;1.50;;;;;;;;;;10500038;28;20498;-56
2022/08/05 05:07:05;;;;;;;3.25;1.48;;;;;;;;;;10500180;28;20034;-56
2022/08/05 05:12:07;;;;;;;5.45;1.33;;;;;;;;;;10499601;28;20031;-56
2022/08/05 05:17:09;;;;;;;2.30;1.40;;;;;;;;;;10498904;28;20025;-55
2022/08/05 05:22:12;;;;;;;1.85;1.55;;;;;;;;;;10498978;28;20056;-56
2022/08/05 05:27:13;;;;;;;1.58;1.20;;;;;;;;;;10498573;28;20376;-56
2022/08/05 05:32:15;;;;;;;1.48;1.33;;;;;;;;;;10498462;28;20020;-54
2022/08/05 05:37:17;;;;;;;1.63;1.10;;;;;;;;;;10498297;28;20028;-57
2022/08/05 05:42:18;;;;;;;9.07;3.42;;;;;;;;;;10488091;28;20050;-58
2022/08/05 05:47:18;;;;;;;6.88;3.13;;;;;;;;;;10455780;28;20029;-58
2022/08/05 05:52:22;;;;;;;8.93;3.65;;;;;;;;;;10477766;28;20070;-58
2022/08/05 05:57:22;;;;;;;11.32;3.45;;;;;;;;;;10488126;28;20102;-57
2022/08/05 06:02:23;;;;;;;8.70;3.40;;;;;;;;;;10490208;28;20094;-54
2022/08/05 06:07:24;;;;;;;12.35;3.35;;;;;;;;;;10483772;28;20028;-57
2022/08/05 06:12:24;;;;;;;10.32;3.22;;;;;;;;;;10482297;28;20017;-58
2022/08/05 06:17:25;;;;;;;8.57;3.92;;;;;;;;;;10473978;28;20032;-49
2022/08/05 06:22:31;;;;;;;10.75;3.08;;;;;;;;;;10475656;28;20025;-49
2022/08/05 06:27:32;;;;;;;6.53;2.97;;;;;;;;;;10489787;28;20469;-49
2022/08/05 06:32:32;;;;;;;4.53;2.97;;;;;;;;;;10489864;28;20059;-49
2022/08/05 06:37:33;;;;;;;8.73;3.28;;;;;;;;;;10469592;28;20468;-49
2022/08/05 06:42:34;;;;;;;9.85;3.00;;;;;;;;;;10480964;28;20029;-50
2022/08/05 06:47:35;;;;;;;8.60;3.13;;;;;;;;;;10483269;28;20086;-49
2022/08/05 06:52:35;;;;;;;4.18;2.83;;;;;;;;;;10482854;28;20049;-54
2022/08/05 06:57:36;;;;;;;7.85;3.28;;;;;;;;;;10483170;28;20032;-48
2022/08/05 07:02:46;;;;;;;10.50;2.70;;;;;;;;;;10489008;28;20033;-48
2022/08/05 07:07:48;;;;;;;5.15;2.60;;;;;;;;;;10455774;28;20113;-48
2022/08/05 07:18:07;;;;;;;3.83;2.35;;;;;;;;;;10486343;28;20469;-48
2022/08/05 07:23:08;;;;;;;3.30;2.53;;;;;;;;;;10491686;28;20024;-48
2022/08/05 07:28:10;;;;;;;5.18;2.30;;;;;;;;;;10495628;28;20036;-48
2022/08/05 07:33:11;;;;;;;3.50;2.50;;;;;;;;;;10477603;28;20063;-49
2022/08/05 07:38:16;;;;;;;5.32;2.60;;;;;;;;;;10482484;28;20115;-48
2022/08/05 07:43:16;;;;;;;5.43;2.60;;;;;;;;;;10480397;28;20020;-48
2022/08/05 07:48:17;;;;;;;5.30;2.53;;;;;;;;;;10483526;28;20028;-54
2022/08/05 07:53:17;;;;;;;6.10;2.53;;;;;;;;;;10479749;28;20519;-50
2022/08/05 07:58:18;;;;;;;3.38;2.78;;;;;;;;;;10481993;28;20437;-48
2022/08/05 08:03:19;;;;;;;5.75;2.78;;;;;;;;;;10480355;28;20043;-49
2022/08/05 08:08:19;;;;;;;8.63;2.60;;;;;;;;;;10481503;28;20087;-48
2022/08/05 08:13:20;;;;;;;4.55;2.35;;;;;;;;;;10479048;28;20033;-47
2022/08/05 08:18:21;;;;;;;3.80;2.45;;;;;;;;;;10482194;28;20032;-48
2022/08/05 08:23:21;;;;;;;3.63;2.20;;;;;;;;;;10466677;28;20032;-48
2022/08/05 08:28:22;;;;;;;4.25;2.42;;;;;;;;;;10480774;28;20020;-51
2022/08/05 08:33:22;;;;;;;2.58;2.17;;;;;;;;;;10466399;28;20403;-53
2022/08/05 08:38:23;;;;;;;4.70;2.10;;;;;;;;;;10482787;28;20040;-49
2022/08/05 08:43:24;;;;;;;5.70;2.33;;;;;;;;;;10478938;28;20025;-52
2022/08/05 08:48:27;;;;;;;3.47;2.40;;;;;;;;;;10484371;28;20460;-48
2022/08/05 08:53:35;;;;;;;5.38;2.58;;;;;;;;;;10492443;28;20552;-48
2022/08/05 08:58:36;;;;;;;4.72;2.50;;;;;;;;;;10460534;28;20033;-48
2022/08/05 09:03:39;;;;;;;4.05;2.30;;;;;;;;;;10466368;28;20048;-48
2022/08/05 09:08:40;;;;;;;4.13;2.33;;;;;;;;;;10491763;28;20056;-48
2022/08/05 09:13:41;;;;;;;2.47;2.00;;;;;;;;;;10477757;28;20446;-49
2022/08/05 09:18:43;;;;;;;5.15;2.10;;;;;;;;;;10476800;28;20021;-54
2022/08/05 09:23:44;;;;;;;2.83;2.10;;;;;;;;;;10478234;28;20472;-49
2022/08/05 09:28:47;;;;;;;2.75;1.95;;;;;;;;;;10463267;28;20564;-54
2022/08/05 09:33:53;;;;;;;2.85;2.10;;;;;;;;;;10464282;28;20429;-48
2022/08/05 09:39:05;;;;;;;3.85;2.03;;;;;;;;;;10463916;28;20032;-49
2022/08/05 09:44:06;;;;;;;3.03;2.20;;;;;;;;;;10477128;28;20020;-48
2022/08/05 09:49:23;;;;;;;3.67;2.08;;;;;;;;;;10486420;28;20020;-49
2022/08/05 09:54:30;;;;;;;2.50;2.22;;;;;;;;;;10476786;28;20068;-49
2022/08/05 09:59:31;;;;;;;2.53;2.27;;;;;;;;;;10491108;28;20050;-50
2022/08/05 10:04:38;;;;;;;3.22;2.03;;;;;;;;;;10480887;28;20908;-50
2022/08/05 10:09:54;;;;;;;8.63;2.17;;;;;;;;;;10460334;28;20043;-48
2022/08/05 10:15:23;;;;;;;4.00;2.20;;;;;;;;;;10484784;28;20043;-50
2022/08/05 10:20:24;;;;;;;5.55;2.03;;;;;;;;;;10457235;28;20033;-50
2022/08/05 10:25:25;;;;;;;2.38;2.00;;;;;;;;;;10499151;28;20070;-53
2022/08/05 10:30:29;;;;;;;2.38;2.00;;;;;;;;;;10498660;28;20090;-49
2022/08/05 10:35:31;;;;;;;2.15;1.95;;;;;;;;;;10483152;28;20056;-51
2022/08/05 10:40:53;;;;;;;3.83;2.10;;;;;;;;;;10483809;28;20036;-49
2022/08/05 10:46:07;;;;;;;3.53;2.03;;;;;;;;;;10483117;28;20471;-50
2022/08/05 10:51:19;;;;;;;2.85;1.90;;;;;;;;;;10497407;28;20463;-48
2022/08/05 10:56:35;;;;;;;3.15;1.88;;;;;;;;;;10496874;28;20024;-49
2022/08/05 11:01:42;;;;;;;2.35;1.70;;;;;;;;;;10456286;28;20025;-48
2022/08/05 11:07:04;;;;;;;;;;;;;;;;;;10469998;28;20037;-49
2022/08/05 11:12:41;;;;;;;1.60;1.50;;;;;;;;;;10456899;28;19913;-49
2022/08/05 11:17:43;;;;;;;3.17;1.83;;;;;;;;;;10476954;28;20210;-49
2022/08/05 11:22:47;;;;;;;3.13;1.90;;;;;;;;;;10473704;28;20029;-50
2022/08/05 11:27:48;;;;;;;3.45;1.80;;;;;;;;;;10490546;28;20057;-48
2022/08/05 11:32:48;;;;;;;4.32;1.73;;;;;;;;;;10463698;28;20025;-48
2022/08/05 11:37:52;;;;;;;2.33;2.10;;;;;;;;;;10468270;28;20124;-48
2022/08/05 11:42:52;;;;;;;4.72;1.77;;;;;;;;;;10484292;28;20101;-48
2022/08/05 11:47:53;;;;;;;6.38;1.80;;;;;;;;;;10475133;28;20533;-49
2022/08/05 11:52:54;;;;;;;3.88;2.08;;;;;;;;;;10479602;28;20040;-49
2022/08/05 11:57:54;;;;;;;6.90;2.38;;;;;;;;;;10473642;28;20033;-52
2022/08/05 12:02:55;;;;;;;7.30;1.88;;;;;;;;;;10483930;28;20048;-49
2022/08/05 12:07:58;;;;;;;4.43;1.98;;;;;;;;;;10493220;28;20029;-51
2022/08/05 12:13:03;;;;;;;8.90;2.05;;;;;;;;;;10494071;28;20115;-49
2022/08/05 12:18:04;;;;;;;5.43;1.80;;;;;;;;;;10492974;28;20039;-49
2022/08/05 12:23:09;;;;;;;5.43;2.08;;;;;;;;;;10488776;28;20471;-49
2022/08/05 12:28:10;;;;;;;6.07;2.25;;;;;;;;;;10486223;28;20418;-54
2022/08/05 12:33:11;;;;;;;4.03;1.70;;;;;;;;;;10466042;28;20039;-52
2022/08/05 12:38:11;;;;;;;5.68;2.03;;;;;;;;;;10465615;28;20036;-49
2022/08/05 12:43:12;;;;;;;5.30;1.90;;;;;;;;;;10476893;28;20033;-54
2022/08/05 12:48:14;;;;;;;6.50;2.10;;;;;;;;;;10475724;28;20036;-54
2022/08/05 12:53:15;;;;;;;5.38;2.00;;;;;;;;;;10491747;28;20119;-49
2022/08/05 12:58:23;;;;;;;6.28;2.20;;;;;;;;;;10490412;28;20028;-52
2022/08/05 13:03:24;;;;;;;4.15;2.20;;;;;;;;;;10471971;28;20028;-52
2022/08/05 13:08:30;;;;;;;5.22;2.30;;;;;;;;;;10478630;28;20082;-54
2022/08/05 13:13:31;;;;;;;8.27;2.40;;;;;;;;;;10483184;28;20426;-53
2022/08/05 13:18:38;;;;;;;7.05;1.92;;;;;;;;;;10454293;28;20028;-54
2022/08/05 13:23:38;;;;;;;2.30;2.00;;;;;;;;;;10465620;28;20031;-50
2022/08/05 13:28:39;;;;;;;4.38;2.10;;;;;;;;;;10489404;28;20028;-52
2022/08/05 13:33:41;;;;;;;3.97;1.80;;;;;;;;;;10455010;28;20029;-52
2022/08/05 13:38:41;;;;;;;4.50;2.00;;;;;;;;;;10474510;28;20082;-51
2022/08/05 13:43:43;;;;;;;9.35;2.05;;;;;;;;;;10470166;28;20435;-54
2022/08/05 13:48:44;;;;;;;6.30;2.13;;;;;;;;;;10483617;28;20024;-50
2022/08/05 13:53:44;;;;;;;3.95;1.88;;;;;;;;;;10485140;28;20040;-52
2022/08/05 13:58:46;;;;;;;5.43;2.00;;;;;;;;;;10481785;28;20538;-52
2022/08/05 14:05:09;;;;;;;6.32;2.08;;;;;;;;;;10490424;28;20023;-50
2022/08/05 14:09:07;;;;;;;3.20;1.80;;;;;;;;;;10489970;28;20024;-54
2022/08/05 14:14:08;;;;;;;4.50;1.77;;;;;;;;;;10466624;28;20368;-50
2022/08/05 14:19:09;;;;;;;4.68;2.50;;;;;;;;;;10486126;28;20017;-53
2022/08/05 14:24:11;;;;;;;4.72;2.20;;;;;;;;;;10483296;28;20020;-52
2022/08/05 14:29:11;;;;;;;5.45;2.67;;;;;;;;;;10490233;28;20490;-50
2022/08/05 14:34:12;;;;;;;8.85;2.70;;;;;;;;;;10477188;28;20025;-55
2022/08/05 14:39:13;;;;;;;7.13;2.38;;;;;;;;;;10450353;28;20029;-52
2022/08/05 14:44:13;;;;;;;8.55;3.13;;;;;;;;;;10446883;28;20028;-56
2022/08/05 14:49:14;;;;;;;7.15;3.33;;;;;;;;;;10466374;28;20098;-55
2022/08/05 14:54:14;;;;;;;5.75;3.45;;;;;;;;;;10488723;28;20053;-55
2022/08/05 14:59:15;;;;;;;7.28;3.30;;;;;;;;;;10490125;28;20025;-53
2022/08/05 15:04:17;;;;;;;18.92;3.28;;;;;;;;;;10472085;28;20475;-53
2022/08/05 15:09:20;;;;;;;10.50;3.92;;;;;;;;;;10478075;28;20025;-56
2022/08/05 15:14:20;;;;;;;4.53;3.72;;;;;;;;;;10496237;28;20042;-56
2022/08/05 15:19:21;;;;;;;10.68;3.75;;;;;;;;;;10496322;28;20029;-54
2022/08/05 15:24:21;;;;;;;12.52;4.38;;;;;;;;;;10496197;28;20025;-56
2022/08/05 15:29:22;;;;;;;7.82;3.78;;;;;;;;;;10495914;28;20476;-54
2022/08/05 15:34:23;;;;;;;4.20;3.67;;;;;;;;;;10482226;28;20295;-54
2022/08/05 15:39:23;;;;;;;5.93;3.80;;;;;;;;;;10494616;28;20479;-53
2022/08/05 15:44:25;;;;;;;7.40;3.72;;;;;;;;;;10488629;28;20064;-54
2022/08/05 15:49:25;;;;;;;6.63;3.88;;;;;;;;;;10465674;28;20033;-51
2022/08/05 15:54:26;;;;;;;10.30;3.60;;;;;;;;;;10494318;28;20041;-54
2022/08/05 15:59:27;;;;;;;6.07;3.72;;;;;;;;;;10470964;28;20075;-56
2022/08/05 16:04:27;;;;;;;5.28;3.67;;;;;;;;;;10466179;28;20032;-54
2022/08/05 16:09:28;;;;;;;4.60;3.50;;;;;;;;;;10461312;28;20017;-53
2022/08/05 16:14:28;;;;;;;5.13;3.63;;;;;;;;;;10457151;28;20408;-52
2022/08/05 16:19:29;;;;;;;5.38;3.20;;;;;;;;;;10457567;28;20024;-53
2022/08/05 16:24:31;;;;;;;7.45;3.30;;;;;;;;;;10451682;28;20025;-53
2022/08/05 16:29:32;;;;;;;5.55;3.58;;;;;;;;;;10469759;28;20495;-55
2022/08/05 16:34:32;;;;;;;6.30;3.50;;;;;;;;;;10476051;28;20040;-52
2022/08/05 16:39:33;;;;;;;5.53;3.67;;;;;;;;;;10476348;28;20480;-53
2022/08/05 16:44:34;;;;;;;9.00;2.92;;;;;;;;;;10480046;28;20380;-55
2022/08/05 16:49:34;;;;;;;8.45;2.60;;;;;;;;;;10492235;28;20055;-52
2022/08/05 16:54:35;;;;;;;9.23;2.67;;;;;;;;;;10491820;28;20048;-55
2022/08/05 16:59:36;;;;;;;5.45;2.47;;;;;;;;;;10481123;28;20149;-51
2022/08/05 17:04:36;;;;;;;8.30;2.70;;;;;;;;;;10488779;28;20021;-53
2022/08/05 17:09:37;;;;;;;3.13;2.20;;;;;;;;;;10468789;28;20040;-54
2022/08/05 17:14:38;;;;;;;3.35;2.20;;;;;;;;;;10487033;28;20032;-56
2022/08/05 17:19:40;;;;;;;3.97;2.78;;;;;;;;;;10483740;28;20033;-56
2022/08/05 17:24:41;;;;;;;3.28;2.20;;;;;;;;;;10483155;28;20029;-54
2022/08/05 17:29:41;;;;;;;9.95;2.30;;;;;;;;;;10480822;28;20383;-50
2022/08/05 17:34:43;;;;;;;2.30;2.00;;;;;;;;;;10472258;28;20054;-56
2022/08/05 17:39:43;;;;;;;5.30;2.33;;;;;;;;;;10488555;28;20162;-51
2022/08/05 17:44:44;;;;;;;3.17;1.95;;;;;;;;;;10449581;28;20025;-49
2022/08/05 17:49:44;;;;;;;1.95;1.77;;;;;;;;;;10471174;28;20112;-51
2022/08/05 17:54:45;;;;;;;2.53;2.20;;;;;;;;;;10480090;28;20061;-48
2022/08/05 17:59:46;;;;;;;5.32;2.20;;;;;;;;;;10482868;28;20048;-49
2022/08/05 18:04:47;;;;;;;2.72;1.90;;;;;;;;;;10478053;28;20040;-52
2022/08/05 18:09:47;;;;;;;3.88;1.92;;;;;;;;;;10482400;28;20342;-51
2022/08/05 18:14:48;;;;;;;3.25;2.10;;;;;;;;;;10482961;28;20036;-48
2022/08/05 18:19:49;;;;;;;23.80;3.95;;;;;;;;;;10480131;28;20036;-56
2022/08/05 18:24:49;;;;;;;28.27;3.53;;;;;;;;;;10466936;28;20479;-51
2022/08/05 18:29:50;;;;;;;11.23;2.45;;;;;;;;;;10462656;28;20431;-52
2022/08/05 18:34:50;;;;;;;8.07;1.95;;;;;;;;;;10480639;28;20020;-52
2022/08/05 18:39:51;;;;;;;4.57;1.60;;;;;;;;;;10480253;28;20021;-51
2022/08/05 18:44:51;;;;;;;4.80;1.67;;;;;;;;;;10491850;28;20079;-55
2022/08/05 18:55:11;;;;;;;1.48;1.38;;;;;;;;;;10492182;28;20068;-50
2022/08/05 19:00:12;;;;;;;3.72;1.27;;;;;;;;;;10468822;28;20037;-49
2022/08/05 19:05:13;;;;;;;4.82;1.83;;;;;;;;;;10496546;28;20494;-56
2022/08/05 19:10:17;;;;;;;4.72;1.70;;;;;;;;;;10481108;28;20055;-50
2022/08/05 19:15:18;;;;;;;6.43;2.15;;;;;;;;;;10489628;28;20107;-49
2022/08/05 19:20:19;;;;;;;7.85;2.30;;;;;;;;;;10469157;28;20526;-58
2022/08/05 19:25:20;;;;;;;8.55;2.53;;;;;;;;;;10481302;28;20036;-59
2022/08/05 19:30:21;;;;;;;6.68;2.00;;;;;;;;;;10461174;28;20503;-58
2022/08/05 19:35:22;;;;;;;5.90;2.80;;;;;;;;;;10490176;28;20475;-57
2022/08/05 19:40:23;;;;;;;9.88;2.22;;;;;;;;;;10495138;28;20112;-59
2022/08/05 19:45:23;;;;;;;7.28;2.10;;;;;;;;;;10485284;28;20024;-58
2022/08/05 19:50:24;;;;;;;10.65;2.10;;;;;;;;;;10484928;28;20043;-58
2022/08/05 19:55:25;;;;;;;11.55;2.50;;;;;;;;;;10475614;28;20090;-58
2022/08/05 20:00:26;;;;;;;8.48;2.30;;;;;;;;;;10485369;28;20032;-58
2022/08/05 20:05:26;;;;;;;10.05;1.83;;;;;;;;;;10494418;28;20035;-58
2022/08/05 20:10:27;;;;;;;9.27;1.88;;;;;;;;;;10493923;28;20459;-58
2022/08/05 20:15:28;;;;;;;3.53;1.90;;;;;;;;;;10494266;28;20312;-58
2022/08/05 20:20:29;;;;;;;13.43;2.10;;;;;;;;;;10489705;28;20090;-58
2022/08/05 20:25:30;;;;;;;12.65;2.00;;;;;;;;;;10484281;28;20094;-58
2022/08/05 20:30:30;;;;;;;14.82;2.10;;;;;;;;;;10485076;28;20025;-58
2022/08/05 20:35:31;;;;;;;14.77;2.08;;;;;;;;;;10469729;28;20082;-58
2022/08/05 20:40:34;;;;;;;7.85;1.73;;;;;;;;;;10464407;28;20131;-58
2022/08/05 20:45:34;;;;;;;7.03;2.42;;;;;;;;;;10465206;28;20447;-58
2022/08/05 20:50:35;;;;;;;10.45;2.20;;;;;;;;;;10460848;28;20082;-58
2022/08/05 20:55:35;;;;;;;11.02;1.92;;;;;;;;;;10459828;28;20136;-58
2022/08/05 21:00:36;;;;;;;4.22;1.75;;;;;;;;;;10492172;28;20032;-58
2022/08/05 21:05:39;;;;;;;9.18;1.90;;;;;;;;;;10491775;28;20025;-58
2022/08/05 21:10:43;;;;;;;17.70;2.33;;;;;;;;;;10489568;28;20028;-58
2022/08/05 21:15:44;;;;;;;3.97;2.10;;;;;;;;;;10491595;28;20124;-58
2022/08/05 21:20:45;;;;;;;8.30;2.47;;;;;;;;;;10487691;28;20033;-59
2022/08/05 21:25:45;;;;;;;7.18;2.45;;;;;;;;;;10451876;28;20017;-58
2022/08/05 21:30:46;;;;;;;6.20;2.20;;;;;;;;;;10466634;28;20025;-58
2022/08/05 21:35:46;;;;;;;4.97;2.20;;;;;;;;;;10484458;28;20374;-59
2022/08/05 21:40:47;;;;;;;3.13;2.03;;;;;;;;;;10486165;28;20032;-59
2022/08/05 21:45:47;;;;;;;3.70;2.30;;;;;;;;;;10476383;28;20258;-58
2022/08/05 21:50:48;;;;;;;4.45;2.03;;;;;;;;;;10486261;28;20427;-58
2022/08/05 21:55:49;;;;;;;6.82;2.40;;;;;;;;;;10484972;28;20068;-58
2022/08/05 22:00:49;;;;;;;6.93;2.42;;;;;;;;;;10480858;28;20021;-59
2022/08/05 22:05:50;;;;;;;5.25;2.45;;;;;;;;;;10476243;28;20468;-58
2022/08/05 22:10:52;;;;;;;5.53;2.00;;;;;;;;;;10489152;28;20389;-59
2022/08/05 22:15:52;;;;;;;3.35;2.25;;;;;;;;;;10467667;28;20111;-58
2022/08/05 22:20:54;;;;;;;4.72;2.53;;;;;;;;;;10489245;28;20033;-59
2022/08/05 22:31:14;;;;;;;6.25;2.47;;;;;;;;;;10481005;28;20036;-58
2022/08/05 22:36:15;;;;;;;4.75;2.33;;;;;;;;;;10465763;28;20033;-50
2022/08/05 22:41:18;;;;;;;6.63;2.13;;;;;;;;;;10488898;28;20021;-52
2022/08/05 22:46:18;;;;;;;7.80;2.83;;;;;;;;;;10479634;28;20055;-50
2022/08/05 22:51:19;;;;;;;9.73;2.83;;;;;;;;;;10475938;28;20037;-48
2022/08/05 22:56:20;;;;;;;8.52;2.58;;;;;;;;;;10487415;28;20060;-46
2022/08/05 23:01:21;;;;;;;10.43;2.40;;;;;;;;;;10473379;28;20052;-47
2022/08/05 23:06:21;;;;;;;6.43;2.63;;;;;;;;;;10473942;28;20031;-47
2022/08/05 23:11:22;;;;;;;5.78;2.35;;;;;;;;;;10489586;28;20461;-49
2022/08/05 23:17:22;;;;;;;7.57;2.35;;;;;;;;;;10489576;28;20431;-48
2022/08/05 23:21:43;;;;;;;4.72;1.92;;;;;;;;;;10495928;28;20032;-50
2022/08/05 23:26:44;;;;;;;3.97;2.00;;;;;;;;;;10495489;28;20509;-53
2022/08/05 23:31:45;;;;;;;3.38;2.13;;;;;;;;;;10458146;28;20029;-52
2022/08/05 23:36:45;;;;;;;7.65;1.88;;;;;;;;;;10480423;28;20032;-48
2022/08/05 23:41:46;;;;;;;3.30;2.08;;;;;;;;;;10495043;28;20104;-48
2022/08/05 23:46:47;;;;;;;3.28;2.10;;;;;;;;;;10489298;28;20033;-47
2022/08/05 23:57:07;;;;;;;2.88;2.17;;;;;;;;;;10482535;28;20111;-47
